sensor_id;sensor_type;location;lat;lon;timestamp;pressure;altitude;pressure_sealevel;temperature;humidity
9335;BME280;4706;41.844;26.082;2024-01-15T00:01:26;100488.69;;;2.66;72.28
9335;BME280;4706;41.844;26.082;2024-01-15T00:03:52;100473.56;;;2.54;72.40
9335;BME280;4706;41.844;26.082;2024-01-15T00:06:17;100475.75;;;2.35;72.11
9335;BME280;4706;41.844;26.082;2024-01-15T00:08:43;100486.28;;;2.31;72.90
9335;BME280;4706;41.844;26.082;2024-01-15T00:11:08;100482.59;;;2.37;72.76
9335;BME280;4706;41.844;26.082;2024-01-15T00:13:34;100483.72;;;2.41;72.30
9335;BME280;4706;41.844;26.082;2024-01-15T00:15:59;100480.75;;;2.43;71.81
9335;BME280;4706;41.844;26.082;2024-01-15T00:18:25;100487.09;;;2.32;72.36
9335;BME280;4706;41.844;26.082;2024-01-15T00:20:50;100474.03;;;1.95;73.70
9335;BME280;4706;41.844;26.082;2024-01-15T00:23:16;100476.19;;;1.93;74.45
9335;BME280;4706;41.844;26.082;2024-01-15T00:25:41;100491.19;;;1.67;75.77
9335;BME280;4706;41.844;26.082;2024-01-15T00:28:07;100489.34;;;1.56;76.47
9335;BME280;4706;41.844;26.082;2024-01-15T00:30:32;100473.38;;;1.42;76.70
9335;BME280;4706;41.844;26.082;2024-01-15T00:32:58;100471.78;;;1.30;77.30
9335;BME280;4706;41.844;26.082;2024-01-15T00:35:23;100459.78;;;1.26;77.70
9335;BME280;4706;41.844;26.082;2024-01-15T00:37:49;100475.47;;;1.52;76.95
9335;BME280;4706;41.844;26.082;2024-01-15T00:40:14;100480.00;;;1.63;76.47
9335;BME280;4706;41.844;26.082;2024-01-15T00:42:42;100480.56;;;1.65;75.85
9335;BME280;4706;41.844;26.082;2024-01-15T00:45:08;100466.38;;;1.75;75.35
9335;BME280;4706;41.844;26.082;2024-01-15T00:47:34;100463.75;;;1.63;75.24
9335;BME280;4706;41.844;26.082;2024-01-15T00:50:00;100458.94;;;1.54;75.59
9335;BME280;4706;41.844;26.082;2024-01-15T00:52:26;100449.84;;;1.60;75.28
9335;BME280;4706;41.844;26.082;2024-01-15T00:54:51;100462.19;;;1.67;74.90
9335;BME280;4706;41.844;26.082;2024-01-15T00:57:17;100453.78;;;1.69;74.85
9335;BME280;4706;41.844;26.082;2024-01-15T00:59:44;100453.41;;;1.77;73.77
9335;BME280;4706;41.844;26.082;2024-01-15T01:02:10;100443.28;;;1.73;74.08
9335;BME280;4706;41.844;26.082;2024-01-15T01:04:35;100458.84;;;1.77;74.01
9335;BME280;4706;41.844;26.082;2024-01-15T01:07:01;100446.59;;;1.75;73.80
9335;BME280;4706;41.844;26.082;2024-01-15T01:09:27;100442.88;;;1.64;73.88
9335;BME280;4706;41.844;26.082;2024-01-15T01:11:56;100450.25;;;1.68;73.99
9335;BME280;4706;41.844;26.082;2024-01-15T01:14:21;100438.34;;;1.53;74.56
9335;BME280;4706;41.844;26.082;2024-01-15T01:16:47;100451.75;;;1.59;74.18
9335;BME280;4706;41.844;26.082;2024-01-15T01:19:12;100446.53;;;1.58;74.20
9335;BME280;4706;41.844;26.082;2024-01-15T01:21:38;100444.16;;;1.61;73.34
9335;BME280;4706;41.844;26.082;2024-01-15T01:24:04;100459.94;;;1.64;72.84
9335;BME280;4706;41.844;26.082;2024-01-15T01:26:30;100457.44;;;1.75;71.98
9335;BME280;4706;41.844;26.082;2024-01-15T01:28:56;100471.19;;;1.56;72.34
9335;BME280;4706;41.844;26.082;2024-01-15T01:31:23;100465.91;;;1.33;72.72
9335;BME280;4706;41.844;26.082;2024-01-15T01:33:49;100466.72;;;1.33;71.96
9335;BME280;4706;41.844;26.082;2024-01-15T01:36:14;100468.00;;;1.31;72.32
9335;BME280;4706;41.844;26.082;2024-01-15T01:38:40;100465.31;;;1.31;72.01
9335;BME280;4706;41.844;26.082;2024-01-15T01:41:06;100465.09;;;1.49;71.86
9335;BME280;4706;41.844;26.082;2024-01-15T01:43:32;100463.16;;;1.61;71.53
9335;BME280;4706;41.844;26.082;2024-01-15T01:45:58;100455.94;;;1.67;71.90
9335;BME280;4706;41.844;26.082;2024-01-15T01:48:25;100450.59;;;1.72;71.45
9335;BME280;4706;41.844;26.082;2024-01-15T01:50:55;100457.72;;;1.44;71.53
9335;BME280;4706;41.844;26.082;2024-01-15T01:53:23;100450.13;;;1.30;71.42
9335;BME280;4706;41.844;26.082;2024-01-15T01:55:49;100442.09;;;1.06;71.79
9335;BME280;4706;41.844;26.082;2024-01-15T01:58:16;100455.63;;;1.06;71.75
9335;BME280;4706;41.844;26.082;2024-01-15T02:00:43;100452.41;;;1.21;72.23
9335;BME280;4706;41.844;26.082;2024-01-15T02:03:09;100454.25;;;1.32;71.63
9335;BME280;4706;41.844;26.082;2024-01-15T02:05:35;100447.16;;;1.31;71.79
9335;BME280;4706;41.844;26.082;2024-01-15T02:08:00;100453.25;;;1.38;71.08
9335;BME280;4706;41.844;26.082;2024-01-15T02:10:26;100442.00;;;1.46;71.13
9335;BME280;4706;41.844;26.082;2024-01-15T02:12:52;100441.44;;;1.44;70.48
9335;BME280;4706;41.844;26.082;2024-01-15T02:15:17;100446.03;;;1.44;70.66
9335;BME280;4706;41.844;26.082;2024-01-15T02:18:05;100428.97;;;1.43;71.22
9335;BME280;4706;41.844;26.082;2024-01-15T02:20:32;100426.34;;;1.49;70.98
9335;BME280;4706;41.844;26.082;2024-01-15T02:25:32;100426.25;;;1.43;72.17
9335;BME280;4706;41.844;26.082;2024-01-15T02:27:58;100433.06;;;1.46;72.28
9335;BME280;4706;41.844;26.082;2024-01-15T02:30:25;100420.59;;;1.45;72.25
9335;BME280;4706;41.844;26.082;2024-01-15T02:32:50;100414.91;;;1.46;72.44
9335;BME280;4706;41.844;26.082;2024-01-15T02:35:16;100421.00;;;1.54;71.50
9335;BME280;4706;41.844;26.082;2024-01-15T02:37:43;100405.13;;;1.45;71.57
9335;BME280;4706;41.844;26.082;2024-01-15T02:40:08;100423.56;;;1.60;71.15
9335;BME280;4706;41.844;26.082;2024-01-15T02:42:34;100421.59;;;1.56;70.62
9335;BME280;4706;41.844;26.082;2024-01-15T02:44:59;100409.00;;;1.33;70.26
9335;BME280;4706;41.844;26.082;2024-01-15T02:47:25;100413.94;;;1.07;71.39
9335;BME280;4706;41.844;26.082;2024-01-15T02:49:51;100414.13;;;1.17;71.38
9335;BME280;4706;41.844;26.082;2024-01-15T02:52:16;100395.59;;;1.26;70.92
9335;BME280;4706;41.844;26.082;2024-01-15T02:54:42;100410.72;;;1.39;70.19
9335;BME280;4706;41.844;26.082;2024-01-15T02:57:08;100420.31;;;1.30;69.80
9335;BME280;4706;41.844;26.082;2024-01-15T02:59:33;100409.72;;;1.28;70.65
9335;BME280;4706;41.844;26.082;2024-01-15T03:01:59;100415.50;;;1.32;71.40
9335;BME280;4706;41.844;26.082;2024-01-15T03:04:24;100412.03;;;1.36;70.24
9335;BME280;4706;41.844;26.082;2024-01-15T03:06:50;100415.97;;;1.00;70.41
9335;BME280;4706;41.844;26.082;2024-01-15T03:09:15;100415.75;;;0.90;70.43
9335;BME280;4706;41.844;26.082;2024-01-15T03:11:41;100404.97;;;0.78;71.01
9335;BME280;4706;41.844;26.082;2024-01-15T03:14:06;100398.69;;;0.61;72.04
9335;BME280;4706;41.844;26.082;2024-01-15T03:16:32;100406.66;;;0.56;71.57
9335;BME280;4706;41.844;26.082;2024-01-15T03:18:57;100396.78;;;0.61;70.96
9335;BME280;4706;41.844;26.082;2024-01-15T03:21:23;100401.38;;;0.61;71.23
9335;BME280;4706;41.844;26.082;2024-01-15T03:23:48;100393.50;;;0.47;71.48
9335;BME280;4706;41.844;26.082;2024-01-15T03:26:14;100396.22;;;0.47;72.11
9335;BME280;4706;41.844;26.082;2024-01-15T03:28:40;100397.66;;;0.38;71.44
9335;BME280;4706;41.844;26.082;2024-01-15T03:31:05;100401.75;;;0.41;71.84
9335;BME280;4706;41.844;26.082;2024-01-15T03:33:31;100401.66;;;0.36;71.79
9335;BME280;4706;41.844;26.082;2024-01-15T03:35:56;100394.47;;;0.53;71.75
9335;BME280;4706;41.844;26.082;2024-01-15T03:38:23;100382.19;;;0.62;71.66
9335;BME280;4706;41.844;26.082;2024-01-15T03:40:49;100388.16;;;0.76;71.46
9335;BME280;4706;41.844;26.082;2024-01-15T03:43:14;100383.50;;;0.88;70.93
9335;BME280;4706;41.844;26.082;2024-01-15T03:45:40;100384.13;;;0.90;71.20
9335;BME280;4706;41.844;26.082;2024-01-15T03:48:05;100399.56;;;1.07;70.97
9335;BME280;4706;41.844;26.082;2024-01-15T03:50:31;100401.56;;;1.11;70.57
9335;BME280;4706;41.844;26.082;2024-01-15T03:52:56;100412.97;;;1.13;70.31
9335;BME280;4706;41.844;26.082;2024-01-15T03:55:22;100414.47;;;1.21;69.59
9335;BME280;4706;41.844;26.082;2024-01-15T03:57:47;100410.00;;;1.15;69.26
9335;BME280;4706;41.844;26.082;2024-01-15T04:00:14;100428.72;;;1.16;68.83
9335;BME280;4706;41.844;26.082;2024-01-15T04:02:43;100432.84;;;1.19;68.56
9335;BME280;4706;41.844;26.082;2024-01-15T04:05:09;100420.50;;;1.11;68.40
9335;BME280;4706;41.844;26.082;2024-01-15T04:07:34;100424.78;;;1.07;68.27
9335;BME280;4706;41.844;26.082;2024-01-15T04:10:00;100428.94;;;0.98;70.20
9335;BME280;4706;41.844;26.082;2024-01-15T04:12:25;100426.22;;;0.98;69.85
9335;BME280;4706;41.844;26.082;2024-01-15T04:14:51;100426.88;;;1.05;68.98
9335;BME280;4706;41.844;26.082;2024-01-15T04:17:16;100428.28;;;1.08;69.20
9335;BME280;4706;41.844;26.082;2024-01-15T04:19:46;100392.13;;;0.85;69.17
9335;BME280;4706;41.844;26.082;2024-01-15T04:22:13;100426.56;;;1.02;69.33
9335;BME280;4706;41.844;26.082;2024-01-15T04:24:39;100421.63;;;0.99;68.89
9335;BME280;4706;41.844;26.082;2024-01-15T04:27:05;100429.50;;;1.00;68.98
9335;BME280;4706;41.844;26.082;2024-01-15T04:29:31;100427.72;;;1.06;69.68
9335;BME280;4706;41.844;26.082;2024-01-15T04:31:57;100420.66;;;1.05;69.58
9335;BME280;4706;41.844;26.082;2024-01-15T04:34:22;100408.78;;;0.94;69.25
9335;BME280;4706;41.844;26.082;2024-01-15T04:36:48;100411.19;;;0.90;69.18
9335;BME280;4706;41.844;26.082;2024-01-15T04:39:13;100415.28;;;0.93;69.14
9335;BME280;4706;41.844;26.082;2024-01-15T04:41:39;100420.81;;;0.98;68.06
9335;BME280;4706;41.844;26.082;2024-01-15T04:44:04;100420.59;;;0.88;67.33
9335;BME280;4706;41.844;26.082;2024-01-15T04:46:30;100417.97;;;0.93;67.58
9335;BME280;4706;41.844;26.082;2024-01-15T04:48:56;100428.81;;;0.93;67.77
9335;BME280;4706;41.844;26.082;2024-01-15T04:51:21;100413.91;;;0.79;68.79
9335;BME280;4706;41.844;26.082;2024-01-15T04:53:47;100429.28;;;0.90;68.83
9335;BME280;4706;41.844;26.082;2024-01-15T04:56:12;100419.06;;;0.92;69.26
9335;BME280;4706;41.844;26.082;2024-01-15T04:58:38;100419.06;;;0.92;68.68
9335;BME280;4706;41.844;26.082;2024-01-15T05:01:03;100424.34;;;0.99;68.62
9335;BME280;4706;41.844;26.082;2024-01-15T05:03:29;100433.88;;;0.89;67.89
9335;BME280;4706;41.844;26.082;2024-01-15T05:05:55;100426.03;;;0.88;67.35
9335;BME280;4706;41.844;26.082;2024-01-15T05:08:20;100413.22;;;0.83;68.07
9335;BME280;4706;41.844;26.082;2024-01-15T05:10:47;100410.25;;;0.85;68.26
9335;BME280;4706;41.844;26.082;2024-01-15T05:13:12;100409.53;;;0.89;67.82
9335;BME280;4706;41.844;26.082;2024-01-15T05:15:38;100411.75;;;0.92;68.69
9335;BME280;4706;41.844;26.082;2024-01-15T05:18:04;100413.03;;;1.02;67.73
9335;BME280;4706;41.844;26.082;2024-01-15T05:20:29;100408.91;;;0.99;68.01
9335;BME280;4706;41.844;26.082;2024-01-15T05:22:55;100402.47;;;0.88;68.48
9335;BME280;4706;41.844;26.082;2024-01-15T05:25:20;100404.94;;;0.90;68.51
9335;BME280;4706;41.844;26.082;2024-01-15T05:27:46;100382.59;;;0.83;68.62
9335;BME280;4706;41.844;26.082;2024-01-15T05:30:12;100383.31;;;0.78;69.06
9335;BME280;4706;41.844;26.082;2024-01-15T05:32:37;100388.53;;;0.68;68.82
9335;BME280;4706;41.844;26.082;2024-01-15T05:35:03;100390.97;;;0.81;69.13
9335;BME280;4706;41.844;26.082;2024-01-15T05:37:29;100403.75;;;0.86;69.66
9335;BME280;4706;41.844;26.082;2024-01-15T05:39:54;100393.66;;;0.81;70.33
9335;BME280;4706;41.844;26.082;2024-01-15T05:42:20;100394.25;;;0.83;70.11
9335;BME280;4706;41.844;26.082;2024-01-15T05:44:45;100387.63;;;0.91;70.52
9335;BME280;4706;41.844;26.082;2024-01-15T05:47:11;100387.38;;;0.92;70.84
9335;BME280;4706;41.844;26.082;2024-01-15T05:49:37;100403.00;;;1.02;70.76
9335;BME280;4706;41.844;26.082;2024-01-15T05:52:02;100383.38;;;0.95;72.02
9335;BME280;4706;41.844;26.082;2024-01-15T05:54:29;100394.03;;;1.13;71.51
9335;BME280;4706;41.844;26.082;2024-01-15T05:56:54;100391.06;;;1.15;72.16
9335;BME280;4706;41.844;26.082;2024-01-15T05:59:20;100388.75;;;1.07;73.02
9335;BME280;4706;41.844;26.082;2024-01-15T06:01:45;100388.16;;;1.05;72.44
9335;BME280;4706;41.844;26.082;2024-01-15T06:04:11;100387.75;;;1.13;72.64
9335;BME280;4706;41.844;26.082;2024-01-15T06:06:37;100369.97;;;1.17;73.03
9335;BME280;4706;41.844;26.082;2024-01-15T06:09:02;100367.75;;;1.31;72.53
9335;BME280;4706;41.844;26.082;2024-01-15T06:11:34;100371.06;;;1.33;72.57
9335;BME280;4706;41.844;26.082;2024-01-15T06:14:02;100366.19;;;1.35;72.10
9335;BME280;4706;41.844;26.082;2024-01-15T06:16:28;100376.41;;;1.44;71.83
9335;BME280;4706;41.844;26.082;2024-01-15T06:18:54;100381.50;;;1.58;72.87
9335;BME280;4706;41.844;26.082;2024-01-15T06:21:20;100379.09;;;1.61;72.66
9335;BME280;4706;41.844;26.082;2024-01-15T06:23:46;100372.66;;;1.62;72.54
9335;BME280;4706;41.844;26.082;2024-01-15T06:26:12;100382.25;;;1.70;72.07
9335;BME280;4706;41.844;26.082;2024-01-15T06:28:37;100378.47;;;1.71;71.26
9335;BME280;4706;41.844;26.082;2024-01-15T06:31:03;100388.09;;;1.62;71.31
9335;BME280;4706;41.844;26.082;2024-01-15T06:33:28;100348.31;;;1.34;72.31
9335;BME280;4706;41.844;26.082;2024-01-15T06:35:54;100379.63;;;1.58;73.28
9335;BME280;4706;41.844;26.082;2024-01-15T06:38:20;100363.44;;;1.63;73.84
9335;BME280;4706;41.844;26.082;2024-01-15T06:40:45;100374.34;;;1.68;74.18
9335;BME280;4706;41.844;26.082;2024-01-15T06:43:14;100372.28;;;1.76;74.39
9335;BME280;4706;41.844;26.082;2024-01-15T06:45:40;100365.25;;;1.75;74.67
9335;BME280;4706;41.844;26.082;2024-01-15T06:48:06;100373.38;;;1.75;74.98
9335;BME280;4706;41.844;26.082;2024-01-15T06:50:33;100365.72;;;1.38;78.13
9335;BME280;4706;41.844;26.082;2024-01-15T06:52:58;100378.31;;;1.15;81.39
9335;BME280;4706;41.844;26.082;2024-01-15T06:55:24;100375.56;;;1.27;80.85
9335;BME280;4706;41.844;26.082;2024-01-15T06:57:51;100367.34;;;1.22;81.08
9335;BME280;4706;41.844;26.082;2024-01-15T07:00:17;100348.59;;;1.04;82.78
9335;BME280;4706;41.844;26.082;2024-01-15T07:02:45;100361.88;;;1.05;84.24
9335;BME280;4706;41.844;26.082;2024-01-15T07:05:11;100355.09;;;1.03;86.55
9335;BME280;4706;41.844;26.082;2024-01-15T07:07:36;100367.34;;;0.93;89.40
9335;BME280;4706;41.844;26.082;2024-01-15T07:10:03;100368.28;;;0.99;90.40
9335;BME280;4706;41.844;26.082;2024-01-15T07:12:29;100364.03;;;1.03;91.62
9335;BME280;4706;41.844;26.082;2024-01-15T07:14:56;100361.44;;;0.80;94.57
9335;BME280;4706;41.844;26.082;2024-01-15T07:17:22;100365.94;;;1.19;93.78
9335;BME280;4706;41.844;26.082;2024-01-15T07:19:47;100364.56;;;1.17;94.29
9335;BME280;4706;41.844;26.082;2024-01-15T07:22:13;100357.94;;;0.96;95.32
9335;BME280;4706;41.844;26.082;2024-01-15T07:24:40;100361.75;;;0.55;99.02
9335;BME280;4706;41.844;26.082;2024-01-15T07:27:05;100360.50;;;0.74;99.02
9335;BME280;4706;41.844;26.082;2024-01-15T07:29:31;100355.50;;;0.83;98.78
9335;BME280;4706;41.844;26.082;2024-01-15T07:32:03;100364.63;;;0.77;98.88
9335;BME280;4706;41.844;26.082;2024-01-15T07:34:29;100370.03;;;0.77;100.00
9335;BME280;4706;41.844;26.082;2024-01-15T07:36:55;100365.91;;;0.74;100.00
9335;BME280;4706;41.844;26.082;2024-01-15T07:39:21;100365.59;;;0.59;100.00
9335;BME280;4706;41.844;26.082;2024-01-15T07:41:49;100363.88;;;0.41;100.00
9335;BME280;4706;41.844;26.082;2024-01-15T07:44:14;100368.09;;;0.48;100.00
9335;BME280;4706;41.844;26.082;2024-01-15T07:46:44;100358.34;;;0.47;100.00
9335;BME280;4706;41.844;26.082;2024-01-15T07:49:10;100363.63;;;0.54;100.00
9335;BME280;4706;41.844;26.082;2024-01-15T07:51:35;100358.66;;;0.63;100.00
9335;BME280;4706;41.844;26.082;2024-01-15T07:54:01;100355.06;;;0.45;100.00
9335;BME280;4706;41.844;26.082;2024-01-15T07:56:26;100358.31;;;0.59;100.00
9335;BME280;4706;41.844;26.082;2024-01-15T07:58:52;100352.53;;;0.56;100.00
9335;BME280;4706;41.844;26.082;2024-01-15T08:01:18;100359.00;;;0.66;100.00
9335;BME280;4706;41.844;26.082;2024-01-15T08:03:44;100356.97;;;0.73;100.00
9335;BME280;4706;41.844;26.082;2024-01-15T08:06:09;100351.91;;;0.77;100.00
9335;BME280;4706;41.844;26.082;2024-01-15T08:08:36;100350.13;;;0.71;100.00
9335;BME280;4706;41.844;26.082;2024-01-15T08:11:02;100309.72;;;0.64;100.00
9335;BME280;4706;41.844;26.082;2024-01-15T08:13:28;100350.88;;;0.95;100.00
9335;BME280;4706;41.844;26.082;2024-01-15T08:15:53;100349.34;;;0.99;100.00
9335;BME280;4706;41.844;26.082;2024-01-15T08:18:19;100362.53;;;0.95;100.00
9335;BME280;4706;41.844;26.082;2024-01-15T08:20:47;100351.75;;;0.84;100.00
9335;BME280;4706;41.844;26.082;2024-01-15T08:23:13;100353.88;;;0.82;100.00
9335;BME280;4706;41.844;26.082;2024-01-15T08:25:38;100344.25;;;1.03;100.00
9335;BME280;4706;41.844;26.082;2024-01-15T08:28:04;100335.13;;;0.92;100.00
9335;BME280;4706;41.844;26.082;2024-01-15T08:30:30;100342.03;;;1.00;100.00
9335;BME280;4706;41.844;26.082;2024-01-15T08:32:56;100342.94;;;1.05;100.00
9335;BME280;4706;41.844;26.082;2024-01-15T08:35:21;100309.94;;;1.08;100.00
9335;BME280;4706;41.844;26.082;2024-01-15T08:37:49;100342.97;;;1.39;100.00
9335;BME280;4706;41.844;26.082;2024-01-15T08:40:15;100343.22;;;1.37;100.00
9335;BME280;4706;41.844;26.082;2024-01-15T08:42:41;100325.22;;;1.14;100.00
9335;BME280;4706;41.844;26.082;2024-01-15T08:45:07;100330.97;;;1.35;100.00
9335;BME280;4706;41.844;26.082;2024-01-15T08:47:32;100316.94;;;1.38;100.00
9335;BME280;4706;41.844;26.082;2024-01-15T08:49:58;100304.41;;;1.32;100.00
9335;BME280;4706;41.844;26.082;2024-01-15T08:52:24;100309.81;;;1.32;100.00
9335;BME280;4706;41.844;26.082;2024-01-15T08:54:49;100304.72;;;1.02;100.00
9335;BME280;4706;41.844;26.082;2024-01-15T08:57:15;100308.72;;;1.16;100.00
9335;BME280;4706;41.844;26.082;2024-01-15T08:59:41;100289.53;;;1.17;100.00
9335;BME280;4706;41.844;26.082;2024-01-15T09:02:07;100291.75;;;1.37;100.00
9335;BME280;4706;41.844;26.082;2024-01-15T09:04:33;100301.41;;;1.50;100.00
9335;BME280;4706;41.844;26.082;2024-01-15T09:06:59;100288.50;;;1.57;100.00
9335;BME280;4706;41.844;26.082;2024-01-15T09:09:24;100294.75;;;1.75;100.00
9335;BME280;4706;41.844;26.082;2024-01-15T09:11:51;100286.19;;;1.83;100.00
9335;BME280;4706;41.844;26.082;2024-01-15T09:14:16;100289.41;;;2.02;100.00
9335;BME280;4706;41.844;26.082;2024-01-15T09:16:42;100273.09;;;1.97;100.00
9335;BME280;4706;41.844;26.082;2024-01-15T09:19:08;100267.28;;;2.10;100.00
9335;BME280;4706;41.844;26.082;2024-01-15T09:21:33;100270.56;;;2.34;100.00
9335;BME280;4706;41.844;26.082;2024-01-15T09:23:59;100268.88;;;2.55;100.00
9335;BME280;4706;41.844;26.082;2024-01-15T09:26:24;100242.03;;;2.31;100.00
9335;BME280;4706;41.844;26.082;2024-01-15T09:28:50;100240.50;;;2.40;100.00
9335;BME280;4706;41.844;26.082;2024-01-15T09:31:15;100246.22;;;2.44;100.00
9335;BME280;4706;41.844;26.082;2024-01-15T09:33:43;100248.59;;;2.62;100.00
9335;BME280;4706;41.844;26.082;2024-01-15T09:36:09;100244.44;;;2.82;100.00
9335;BME280;4706;41.844;26.082;2024-01-15T09:38:34;100237.69;;;2.84;100.00
9335;BME280;4706;41.844;26.082;2024-01-15T09:41:00;100237.31;;;3.03;100.00
9335;BME280;4706;41.844;26.082;2024-01-15T09:43:26;100230.09;;;3.19;100.00
9335;BME280;4706;41.844;26.082;2024-01-15T09:45:52;100239.16;;;3.34;100.00
9335;BME280;4706;41.844;26.082;2024-01-15T09:48:18;100219.91;;;3.36;100.00
9335;BME280;4706;41.844;26.082;2024-01-15T09:50:44;100225.63;;;3.39;100.00
9335;BME280;4706;41.844;26.082;2024-01-15T09:53:11;100220.69;;;3.31;100.00
9335;BME280;4706;41.844;26.082;2024-01-15T09:55:41;100230.28;;;3.44;100.00
9335;BME280;4706;41.844;26.082;2024-01-15T09:58:06;100196.94;;;3.59;100.00
9335;BME280;4706;41.844;26.082;2024-01-15T10:00:33;100221.19;;;3.65;100.00
9335;BME280;4706;41.844;26.082;2024-01-15T10:03:03;100215.75;;;3.76;100.00
9335;BME280;4706;41.844;26.082;2024-01-15T10:05:29;100217.44;;;3.87;100.00
9335;BME280;4706;41.844;26.082;2024-01-15T10:07:56;100210.44;;;3.96;100.00
9335;BME280;4706;41.844;26.082;2024-01-15T10:10:22;100202.84;;;4.03;100.00
9335;BME280;4706;41.844;26.082;2024-01-15T10:12:48;100190.06;;;3.99;100.00
9335;BME280;4706;41.844;26.082;2024-01-15T10:15:14;100189.00;;;4.10;100.00
9335;BME280;4706;41.844;26.082;2024-01-15T10:17:40;100173.50;;;4.10;100.00
9335;BME280;4706;41.844;26.082;2024-01-15T10:20:10;100176.22;;;4.16;100.00
9335;BME280;4706;41.844;26.082;2024-01-15T10:22:40;100163.41;;;4.21;100.00
9335;BME280;4706;41.844;26.082;2024-01-15T10:25:06;100153.38;;;4.27;100.00
9335;BME280;4706;41.844;26.082;2024-01-15T10:27:31;100159.66;;;4.37;100.00
9335;BME280;4706;41.844;26.082;2024-01-15T10:30:00;100153.41;;;4.37;100.00
9335;BME280;4706;41.844;26.082;2024-01-15T10:32:27;100149.31;;;4.50;100.00
9335;BME280;4706;41.844;26.082;2024-01-15T10:34:54;100113.09;;;4.39;100.00
9335;BME280;4706;41.844;26.082;2024-01-15T10:37:19;100137.06;;;4.62;100.00
9335;BME280;4706;41.844;26.082;2024-01-15T10:39:48;100149.88;;;4.57;100.00
9335;BME280;4706;41.844;26.082;2024-01-15T10:42:14;100143.06;;;4.65;100.00
9335;BME280;4706;41.844;26.082;2024-01-15T10:44:41;100144.72;;;4.71;100.00
9335;BME280;4706;41.844;26.082;2024-01-15T10:47:08;100142.53;;;4.73;100.00
9335;BME280;4706;41.844;26.082;2024-01-15T10:49:34;100130.00;;;4.61;100.00
9335;BME280;4706;41.844;26.082;2024-01-15T10:52:01;100122.38;;;4.69;100.00
9335;BME280;4706;41.844;26.082;2024-01-15T10:54:27;100116.38;;;4.56;100.00
9335;BME280;4706;41.844;26.082;2024-01-15T10:56:53;100115.81;;;4.70;100.00
9335;BME280;4706;41.844;26.082;2024-01-15T10:59:22;100125.94;;;4.74;100.00
9335;BME280;4706;41.844;26.082;2024-01-15T11:01:49;100117.19;;;4.77;100.00
9335;BME280;4706;41.844;26.082;2024-01-15T11:04:16;100111.72;;;4.93;100.00
9335;BME280;4706;41.844;26.082;2024-01-15T11:06:47;100113.63;;;5.02;100.00
9335;BME280;4706;41.844;26.082;2024-01-15T11:09:15;100097.84;;;4.94;100.00
9335;BME280;4706;41.844;26.082;2024-01-15T11:11:45;100082.31;;;4.79;100.00
9335;BME280;4706;41.844;26.082;2024-01-15T11:14:45;100097.03;;;4.83;100.00
9335;BME280;4706;41.844;26.082;2024-01-15T11:17:12;100085.28;;;4.98;100.00
9335;BME280;4706;41.844;26.082;2024-01-15T11:19:45;100087.16;;;5.13;100.00
9335;BME280;4706;41.844;26.082;2024-01-15T11:24:56;100068.88;;;5.19;100.00
9335;BME280;4706;41.844;26.082;2024-01-15T11:30:10;100066.16;;;5.24;100.00
9335;BME280;4706;41.844;26.082;2024-01-15T11:32:36;100072.72;;;5.07;100.00
9335;BME280;4706;41.844;26.082;2024-01-15T11:35:02;100059.41;;;5.01;100.00
9335;BME280;4706;41.844;26.082;2024-01-15T11:42:49;100053.41;;;4.94;100.00
9335;BME280;4706;41.844;26.082;2024-01-15T11:45:21;100043.34;;;4.84;100.00
9335;BME280;4706;41.844;26.082;2024-01-15T11:50:30;100046.88;;;4.84;100.00
9335;BME280;4706;41.844;26.082;2024-01-15T11:53:03;100034.88;;;4.91;100.00
9335;BME280;4706;41.844;26.082;2024-01-15T11:55:38;100021.53;;;4.94;100.00
9335;BME280;4706;41.844;26.082;2024-01-15T11:58:10;100027.75;;;5.00;100.00
9335;BME280;4706;41.844;26.082;2024-01-15T12:00:40;100022.81;;;5.17;100.00
9335;BME280;4706;41.844;26.082;2024-01-15T12:03:07;100019.84;;;5.03;100.00
9335;BME280;4706;41.844;26.082;2024-01-15T12:05:37;100036.94;;;5.34;100.00
9335;BME280;4706;41.844;26.082;2024-01-15T12:08:04;100036.34;;;5.43;100.00
9335;BME280;4706;41.844;26.082;2024-01-15T12:10:38;100029.72;;;5.59;100.00
9335;BME280;4706;41.844;26.082;2024-01-15T12:13:12;100028.34;;;5.56;100.00
9335;BME280;4706;41.844;26.082;2024-01-15T12:15:38;100021.00;;;5.57;100.00
9335;BME280;4706;41.844;26.082;2024-01-15T12:18:07;100016.13;;;5.49;100.00
9335;BME280;4706;41.844;26.082;2024-01-15T12:20:33;100015.88;;;5.45;100.00
9335;BME280;4706;41.844;26.082;2024-01-15T12:23:00;100015.56;;;5.52;100.00
9335;BME280;4706;41.844;26.082;2024-01-15T12:25:26;100014.50;;;5.53;100.00
9335;BME280;4706;41.844;26.082;2024-01-15T12:27:55;100002.56;;;5.39;100.00
9335;BME280;4706;41.844;26.082;2024-01-15T12:30:21;99999.28;;;5.42;100.00
9335;BME280;4706;41.844;26.082;2024-01-15T12:32:47;100004.47;;;5.38;100.00
9335;BME280;4706;41.844;26.082;2024-01-15T12:35:13;100010.72;;;5.44;100.00
9335;BME280;4706;41.844;26.082;2024-01-15T12:37:39;100004.69;;;5.47;100.00
9335;BME280;4706;41.844;26.082;2024-01-15T12:40:06;100000.34;;;5.46;100.00
9335;BME280;4706;41.844;26.082;2024-01-15T12:42:36;99991.56;;;5.49;100.00
9335;BME280;4706;41.844;26.082;2024-01-15T12:45:05;99981.25;;;5.46;100.00
9335;BME280;4706;41.844;26.082;2024-01-15T12:47:31;99988.59;;;5.50;100.00
9335;BME280;4706;41.844;26.082;2024-01-15T12:49:58;99969.75;;;5.49;100.00
9335;BME280;4706;41.844;26.082;2024-01-15T12:52:28;99989.94;;;5.53;100.00
9335;BME280;4706;41.844;26.082;2024-01-15T12:54:54;99983.34;;;5.59;100.00
9335;BME280;4706;41.844;26.082;2024-01-15T12:57:20;99970.56;;;5.54;100.00
9335;BME280;4706;41.844;26.082;2024-01-15T12:59:46;99978.69;;;5.65;100.00
9335;BME280;4706;41.844;26.082;2024-01-15T13:02:16;99975.47;;;5.52;100.00
9335;BME280;4706;41.844;26.082;2024-01-15T13:04:44;99979.75;;;5.64;100.00
9335;BME280;4706;41.844;26.082;2024-01-15T13:07:10;99984.59;;;5.77;100.00
9335;BME280;4706;41.844;26.082;2024-01-15T13:09:35;99977.47;;;5.81;100.00
9335;BME280;4706;41.844;26.082;2024-01-15T13:12:02;99963.28;;;5.79;100.00
9335;BME280;4706;41.844;26.082;2024-01-15T13:14:28;99966.25;;;5.82;100.00
9335;BME280;4706;41.844;26.082;2024-01-15T13:16:54;99971.44;;;5.84;100.00
9335;BME280;4706;41.844;26.082;2024-01-15T13:19:20;99967.06;;;5.88;100.00